sensor_id;sensor_type;location;lat;lon;timestamp;temperature;humidity
4826;DHT22;2427;50.934;6.776;2023-02-22T00:01:19;6.50;1.00
4826;DHT22;2427;50.934;6.776;2023-02-22T00:04:00;6.50;1.00
4826;DHT22;2427;50.934;6.776;2023-02-22T00:06:27;6.50;1.00
4826;DHT22;2427;50.934;6.776;2023-02-22T00:08:53;6.50;1.00
4826;DHT22;2427;50.934;6.776;2023-02-22T00:11:19;6.50;1.00
4826;DHT22;2427;50.934;6.776;2023-02-22T00:13:46;6.40;1.00
4826;DHT22;2427;50.934;6.776;2023-02-22T00:16:17;6.40;1.00
4826;DHT22;2427;50.934;6.776;2023-02-22T00:18:43;6.30;1.00
4826;DHT22;2427;50.934;6.776;2023-02-22T00:21:10;6.30;1.00
4826;DHT22;2427;50.934;6.776;2023-02-22T00:23:40;6.30;1.00
4826;DHT22;2427;50.934;6.776;2023-02-22T00:26:07;6.30;1.00
4826;DHT22;2427;50.934;6.776;2023-02-22T00:28:35;6.30;1.00
4826;DHT22;2427;50.934;6.776;2023-02-22T00:31:02;6.30;1.00
4826;DHT22;2427;50.934;6.776;2023-02-22T00:33:29;6.20;1.00
4826;DHT22;2427;50.934;6.776;2023-02-22T00:35:55;6.20;1.00
4826;DHT22;2427;50.934;6.776;2023-02-22T00:38:20;6.20;1.00
4826;DHT22;2427;50.934;6.776;2023-02-22T00:40:47;6.20;1.00
4826;DHT22;2427;50.934;6.776;2023-02-22T00:43:15;6.20;1.00
4826;DHT22;2427;50.934;6.776;2023-02-22T00:45:41;6.20;1.00
4826;DHT22;2427;50.934;6.776;2023-02-22T00:48:08;6.20;1.00
4826;DHT22;2427;50.934;6.776;2023-02-22T00:50:34;6.20;1.00
4826;DHT22;2427;50.934;6.776;2023-02-22T00:53:01;6.20;1.00
4826;DHT22;2427;50.934;6.776;2023-02-22T00:55:33;6.20;1.00
4826;DHT22;2427;50.934;6.776;2023-02-22T00:58:00;6.20;1.00
4826;DHT22;2427;50.934;6.776;2023-02-22T01:00:33;6.20;1.00
4826;DHT22;2427;50.934;6.776;2023-02-22T01:03:00;6.20;1.00
4826;DHT22;2427;50.934;6.776;2023-02-22T01:05:28;6.30;1.00
4826;DHT22;2427;50.934;6.776;2023-02-22T01:07:55;6.30;1.00
4826;DHT22;2427;50.934;6.776;2023-02-22T01:10:23;6.30;1.00
4826;DHT22;2427;50.934;6.776;2023-02-22T01:12:49;6.30;1.00
4826;DHT22;2427;50.934;6.776;2023-02-22T01:15:18;6.20;1.00
4826;DHT22;2427;50.934;6.776;2023-02-22T01:17:47;6.20;1.00
4826;DHT22;2427;50.934;6.776;2023-02-22T01:20:13;6.20;1.00
4826;DHT22;2427;50.934;6.776;2023-02-22T01:22:43;6.20;1.00
4826;DHT22;2427;50.934;6.776;2023-02-22T01:25:10;6.30;1.00
4826;DHT22;2427;50.934;6.776;2023-02-22T01:27:36;6.30;1.00
4826;DHT22;2427;50.934;6.776;2023-02-22T01:30:04;6.20;1.00
4826;DHT22;2427;50.934;6.776;2023-02-22T01:32:34;6.20;1.00
4826;DHT22;2427;50.934;6.776;2023-02-22T01:35:00;6.20;1.00
4826;DHT22;2427;50.934;6.776;2023-02-22T01:37:30;6.20;1.00
4826;DHT22;2427;50.934;6.776;2023-02-22T01:39:56;6.20;1.00
4826;DHT22;2427;50.934;6.776;2023-02-22T01:42:21;6.20;1.00
4826;DHT22;2427;50.934;6.776;2023-02-22T01:47:53;6.20;1.00
4826;DHT22;2427;50.934;6.776;2023-02-22T01:50:20;6.20;1.00
4826;DHT22;2427;50.934;6.776;2023-02-22T01:52:46;6.20;1.00
4826;DHT22;2427;50.934;6.776;2023-02-22T01:55:12;6.30;1.00
4826;DHT22;2427;50.934;6.776;2023-02-22T01:57:37;6.30;1.00
4826;DHT22;2427;50.934;6.776;2023-02-22T02:12:50;6.30;1.00
4826;DHT22;2427;50.934;6.776;2023-02-22T02:17:54;6.30;1.00
4826;DHT22;2427;50.934;6.776;2023-02-22T02:20:23;6.30;1.00
4826;DHT22;2427;50.934;6.776;2023-02-22T02:25:57;6.30;1.00
4826;DHT22;2427;50.934;6.776;2023-02-22T02:42:12;6.30;1.00
4826;DHT22;2427;50.934;6.776;2023-02-22T02:45:15;6.30;1.00
4826;DHT22;2427;50.934;6.776;2023-02-22T02:47:44;6.20;1.00
4826;DHT22;2427;50.934;6.776;2023-02-22T02:50:22;6.30;1.00
4826;DHT22;2427;50.934;6.776;2023-02-22T02:52:52;6.30;1.00
4826;DHT22;2427;50.934;6.776;2023-02-22T02:55:19;6.30;1.00
4826;DHT22;2427;50.934;6.776;2023-02-22T02:57:45;6.30;1.00
4826;DHT22;2427;50.934;6.776;2023-02-22T03:00:16;6.30;1.00
4826;DHT22;2427;50.934;6.776;2023-02-22T03:03:01;6.30;1.00
4826;DHT22;2427;50.934;6.776;2023-02-22T03:06:10;6.20;1.00
4826;DHT22;2427;50.934;6.776;2023-02-22T03:11:21;6.20;1.00
4826;DHT22;2427;50.934;6.776;2023-02-22T03:22:15;6.20;1.00
4826;DHT22;2427;50.934;6.776;2023-02-22T03:24:58;6.20;1.00
4826;DHT22;2427;50.934;6.776;2023-02-22T03:27:38;6.20;1.00
4826;DHT22;2427;50.934;6.776;2023-02-22T03:30:10;6.10;1.00
4826;DHT22;2427;50.934;6.776;2023-02-22T03:32:41;6.10;1.00
4826;DHT22;2427;50.934;6.776;2023-02-22T03:35:30;6.00;1.00
4826;DHT22;2427;50.934;6.776;2023-02-22T03:38:01;6.00;1.00
4826;DHT22;2427;50.934;6.776;2023-02-22T03:40:31;6.00;1.00
4826;DHT22;2427;50.934;6.776;2023-02-22T03:43:18;5.90;1.00
4826;DHT22;2427;50.934;6.776;2023-02-22T03:45:46;5.90;1.00
4826;DHT22;2427;50.934;6.776;2023-02-22T03:48:20;5.90;1.00
4826;DHT22;2427;50.934;6.776;2023-02-22T03:50:48;5.90;1.00
4826;DHT22;2427;50.934;6.776;2023-02-22T03:53:14;5.90;1.00
4826;DHT22;2427;50.934;6.776;2023-02-22T03:55:41;5.90;1.00
4826;DHT22;2427;50.934;6.776;2023-02-22T03:58:10;5.90;1.00
4826;DHT22;2427;50.934;6.776;2023-02-22T04:00:36;5.90;1.00
4826;DHT22;2427;50.934;6.776;2023-02-22T04:03:02;5.80;1.00
4826;DHT22;2427;50.934;6.776;2023-02-22T04:05:28;5.80;1.00
4826;DHT22;2427;50.934;6.776;2023-02-22T04:07:55;5.80;1.00
4826;DHT22;2427;50.934;6.776;2023-02-22T04:10:22;5.80;1.00
4826;DHT22;2427;50.934;6.776;2023-02-22T04:12:48;5.80;1.00
4826;DHT22;2427;50.934;6.776;2023-02-22T04:15:19;5.80;1.00
4826;DHT22;2427;50.934;6.776;2023-02-22T04:17:46;5.80;1.00
4826;DHT22;2427;50.934;6.776;2023-02-22T04:20:12;5.80;1.00
4826;DHT22;2427;50.934;6.776;2023-02-22T04:22:39;5.70;1.00
4826;DHT22;2427;50.934;6.776;2023-02-22T04:25:05;5.70;1.00
4826;DHT22;2427;50.934;6.776;2023-02-22T04:27:31;5.70;1.00
4826;DHT22;2427;50.934;6.776;2023-02-22T04:29:57;5.70;1.00
4826;DHT22;2427;50.934;6.776;2023-02-22T04:32:22;5.70;1.00
4826;DHT22;2427;50.934;6.776;2023-02-22T04:34:48;5.60;1.00
4826;DHT22;2427;50.934;6.776;2023-02-22T04:37:13;5.60;1.00
4826;DHT22;2427;50.934;6.776;2023-02-22T04:39:39;5.60;1.00
4826;DHT22;2427;50.934;6.776;2023-02-22T04:42:04;5.60;1.00
4826;DHT22;2427;50.934;6.776;2023-02-22T04:44:31;5.60;1.00
4826;DHT22;2427;50.934;6.776;2023-02-22T04:46:56;5.50;1.00
4826;DHT22;2427;50.934;6.776;2023-02-22T04:49:22;5.60;1.00
4826;DHT22;2427;50.934;6.776;2023-02-22T04:51:48;5.60;1.00
4826;DHT22;2427;50.934;6.776;2023-02-22T04:54:14;5.60;1.00
4826;DHT22;2427;50.934;6.776;2023-02-22T04:56:42;5.60;1.00
4826;DHT22;2427;50.934;6.776;2023-02-22T04:59:08;5.60;1.00
4826;DHT22;2427;50.934;6.776;2023-02-22T05:01:34;5.60;1.00
4826;DHT22;2427;50.934;6.776;2023-02-22T05:04:04;5.60;1.00
4826;DHT22;2427;50.934;6.776;2023-02-22T05:06:30;5.70;1.00
4826;DHT22;2427;50.934;6.776;2023-02-22T05:08:56;5.70;1.00
4826;DHT22;2427;50.934;6.776;2023-02-22T05:11:21;5.70;1.00
4826;DHT22;2427;50.934;6.776;2023-02-22T05:13:47;5.70;1.00
4826;DHT22;2427;50.934;6.776;2023-02-22T05:16:13;5.70;1.00
4826;DHT22;2427;50.934;6.776;2023-02-22T05:18:39;5.70;1.00
4826;DHT22;2427;50.934;6.776;2023-02-22T05:21:05;5.70;1.00
4826;DHT22;2427;50.934;6.776;2023-02-22T05:23:31;5.70;1.00
4826;DHT22;2427;50.934;6.776;2023-02-22T05:25:57;5.70;1.00
4826;DHT22;2427;50.934;6.776;2023-02-22T05:28:23;5.70;1.00
4826;DHT22;2427;50.934;6.776;2023-02-22T05:30:48;5.60;1.00
4826;DHT22;2427;50.934;6.776;2023-02-22T05:33:14;5.60;1.00
4826;DHT22;2427;50.934;6.776;2023-02-22T05:35:40;5.60;1.00
4826;DHT22;2427;50.934;6.776;2023-02-22T05:38:06;5.60;1.00
4826;DHT22;2427;50.934;6.776;2023-02-22T05:40:32;5.60;1.00
4826;DHT22;2427;50.934;6.776;2023-02-22T05:42:58;5.50;1.00
4826;DHT22;2427;50.934;6.776;2023-02-22T05:45:26;5.50;1.00
4826;DHT22;2427;50.934;6.776;2023-02-22T05:47:52;5.40;1.00
4826;DHT22;2427;50.934;6.776;2023-02-22T05:50:19;5.40;1.00
4826;DHT22;2427;50.934;6.776;2023-02-22T05:52:46;5.40;1.00
4826;DHT22;2427;50.934;6.776;2023-02-22T05:55:14;5.40;1.00
4826;DHT22;2427;50.934;6.776;2023-02-22T05:57:40;5.30;1.00
4826;DHT22;2427;50.934;6.776;2023-02-22T06:00:06;5.40;1.00
4826;DHT22;2427;50.934;6.776;2023-02-22T06:02:33;5.40;1.00
4826;DHT22;2427;50.934;6.776;2023-02-22T06:04:58;5.30;1.00
4826;DHT22;2427;50.934;6.776;2023-02-22T06:07:24;5.30;1.00
4826;DHT22;2427;50.934;6.776;2023-02-22T06:09:49;5.30;1.00
4826;DHT22;2427;50.934;6.776;2023-02-22T06:12:15;5.30;1.00
4826;DHT22;2427;50.934;6.776;2023-02-22T06:14:42;5.20;1.00
4826;DHT22;2427;50.934;6.776;2023-02-22T06:17:11;5.20;1.00
4826;DHT22;2427;50.934;6.776;2023-02-22T06:19:37;5.20;1.00
4826;DHT22;2427;50.934;6.776;2023-02-22T06:22:03;5.10;1.00
4826;DHT22;2427;50.934;6.776;2023-02-22T06:24:29;5.10;1.00
4826;DHT22;2427;50.934;6.776;2023-02-22T06:26:56;5.10;1.00
4826;DHT22;2427;50.934;6.776;2023-02-22T06:29:23;5.10;1.00
4826;DHT22;2427;50.934;6.776;2023-02-22T06:31:49;5.10;1.00
4826;DHT22;2427;50.934;6.776;2023-02-22T06:34:15;5.00;1.00
4826;DHT22;2427;50.934;6.776;2023-02-22T06:36:40;5.00;1.00
4826;DHT22;2427;50.934;6.776;2023-02-22T06:39:06;5.00;1.00
4826;DHT22;2427;50.934;6.776;2023-02-22T06:41:37;5.00;1.00
4826;DHT22;2427;50.934;6.776;2023-02-22T06:44:03;5.00;1.00
4826;DHT22;2427;50.934;6.776;2023-02-22T06:46:29;4.90;1.00
4826;DHT22;2427;50.934;6.776;2023-02-22T06:48:55;4.90;1.00
4826;DHT22;2427;50.934;6.776;2023-02-22T06:51:21;4.90;1.00
4826;DHT22;2427;50.934;6.776;2023-02-22T06:53:47;5.00;1.00
4826;DHT22;2427;50.934;6.776;2023-02-22T06:56:13;5.00;1.00
4826;DHT22;2427;50.934;6.776;2023-02-22T06:58:38;5.00;1.00
4826;DHT22;2427;50.934;6.776;2023-02-22T07:01:04;5.00;1.00
4826;DHT22;2427;50.934;6.776;2023-02-22T07:03:32;5.00;1.00
4826;DHT22;2427;50.934;6.776;2023-02-22T07:05:58;5.00;1.00
4826;DHT22;2427;50.934;6.776;2023-02-22T07:08:23;5.00;1.00
4826;DHT22;2427;50.934;6.776;2023-02-22T07:10:49;5.00;1.00
4826;DHT22;2427;50.934;6.776;2023-02-22T07:13:15;5.10;1.00
4826;DHT22;2427;50.934;6.776;2023-02-22T07:15:40;5.10;1.00
4826;DHT22;2427;50.934;6.776;2023-02-22T07:18:06;5.10;1.00
4826;DHT22;2427;50.934;6.776;2023-02-22T07:20:32;5.10;1.00
4826;DHT22;2427;50.934;6.776;2023-02-22T07:22:58;5.20;1.00
4826;DHT22;2427;50.934;6.776;2023-02-22T07:25:25;5.20;1.00
4826;DHT22;2427;50.934;6.776;2023-02-22T07:27:50;5.30;1.00
4826;DHT22;2427;50.934;6.776;2023-02-22T07:30:27;5.30;1.00
4826;DHT22;2427;50.934;6.776;2023-02-22T07:32:59;5.30;1.00
4826;DHT22;2427;50.934;6.776;2023-02-22T07:35:30;5.40;1.00
4826;DHT22;2427;50.934;6.776;2023-02-22T07:37:57;5.40;1.00
4826;DHT22;2427;50.934;6.776;2023-02-22T07:40:24;5.50;1.00
4826;DHT22;2427;50.934;6.776;2023-02-22T07:43:49;5.60;1.00
4826;DHT22;2427;50.934;6.776;2023-02-22T07:46:07;5.60;1.00
4826;DHT22;2427;50.934;6.776;2023-02-22T07:48:33;5.70;1.00
4826;DHT22;2427;50.934;6.776;2023-02-22T07:50:58;5.70;1.00
4826;DHT22;2427;50.934;6.776;2023-02-22T07:53:26;5.80;1.00
4826;DHT22;2427;50.934;6.776;2023-02-22T07:55:58;5.90;1.00
4826;DHT22;2427;50.934;6.776;2023-02-22T07:58:26;5.90;1.00
4826;DHT22;2427;50.934;6.776;2023-02-22T08:00:52;5.90;1.00
4826;DHT22;2427;50.934;6.776;2023-02-22T08:03:20;5.90;1.00
4826;DHT22;2427;50.934;6.776;2023-02-22T08:05:49;6.00;1.00
4826;DHT22;2427;50.934;6.776;2023-02-22T08:08:15;6.00;1.00
4826;DHT22;2427;50.934;6.776;2023-02-22T08:10:41;6.00;1.00
4826;DHT22;2427;50.934;6.776;2023-02-22T08:13:07;6.20;1.00
4826;DHT22;2427;50.934;6.776;2023-02-22T08:15:34;6.20;1.00
4826;DHT22;2427;50.934;6.776;2023-02-22T08:18:01;6.30;1.00
4826;DHT22;2427;50.934;6.776;2023-02-22T08:20:29;6.40;1.00
4826;DHT22;2427;50.934;6.776;2023-02-22T08:22:55;6.40;1.00
4826;DHT22;2427;50.934;6.776;2023-02-22T08:25:22;6.50;1.00
4826;DHT22;2427;50.934;6.776;2023-02-22T08:27:50;6.60;1.00
4826;DHT22;2427;50.934;6.776;2023-02-22T08:30:24;6.60;1.00
4826;DHT22;2427;50.934;6.776;2023-02-22T08:32:50;6.70;1.00
4826;DHT22;2427;50.934;6.776;2023-02-22T08:35:20;6.80;1.00
4826;DHT22;2427;50.934;6.776;2023-02-22T08:37:51;6.90;1.00
4826;DHT22;2427;50.934;6.776;2023-02-22T08:40:19;6.90;1.00
4826;DHT22;2427;50.934;6.776;2023-02-22T08:42:45;7.00;1.00
4826;DHT22;2427;50.934;6.776;2023-02-22T08:45:12;7.10;1.00
4826;DHT22;2427;50.934;6.776;2023-02-22T08:47:38;7.10;1.00
4826;DHT22;2427;50.934;6.776;2023-02-22T08:50:05;7.20;1.00
4826;DHT22;2427;50.934;6.776;2023-02-22T08:52:31;7.30;1.00
4826;DHT22;2427;50.934;6.776;2023-02-22T08:54:57;7.30;99.90
4826;DHT22;2427;50.934;6.776;2023-02-22T08:57:23;7.40;99.90
4826;DHT22;2427;50.934;6.776;2023-02-22T08:59:48;7.40;99.90
4826;DHT22;2427;50.934;6.776;2023-02-22T09:02:15;7.50;99.90
4826;DHT22;2427;50.934;6.776;2023-02-22T09:04:42;7.60;99.90
4826;DHT22;2427;50.934;6.776;2023-02-22T09:07:07;7.60;99.90
4826;DHT22;2427;50.934;6.776;2023-02-22T09:09:33;7.60;99.90
4826;DHT22;2427;50.934;6.776;2023-02-22T09:11:58;7.70;99.90
4826;DHT22;2427;50.934;6.776;2023-02-22T09:14:24;7.80;99.90
4826;DHT22;2427;50.934;6.776;2023-02-22T09:16:49;7.90;99.90
4826;DHT22;2427;50.934;6.776;2023-02-22T09:19:15;8.10;99.90
4826;DHT22;2427;50.934;6.776;2023-02-22T09:21:41;8.20;99.90
4826;DHT22;2427;50.934;6.776;2023-02-22T09:24:07;8.40;99.90
4826;DHT22;2427;50.934;6.776;2023-02-22T09:26:37;8.40;67.50
4826;DHT22;2427;50.934;6.776;2023-02-22T09:29:07;8.60;13.70
4826;DHT22;2427;50.934;6.776;2023-02-22T09:31:38;8.60;1.00
4826;DHT22;2427;50.934;6.776;2023-02-22T09:34:06;8.60;1.00
4826;DHT22;2427;50.934;6.776;2023-02-22T09:36:46;8.80;1.00
4826;DHT22;2427;50.934;6.776;2023-02-22T09:39:13;8.90;1.00
4826;DHT22;2427;50.934;6.776;2023-02-22T09:42:32;9.00;1.00
4826;DHT22;2427;50.934;6.776;2023-02-22T09:47:39;9.30;1.00
4826;DHT22;2427;50.934;6.776;2023-02-22T09:50:12;9.40;1.00
4826;DHT22;2427;50.934;6.776;2023-02-22T09:55:38;9.70;1.00
4826;DHT22;2427;50.934;6.776;2023-02-22T09:58:19;9.90;99.90
4826;DHT22;2427;50.934;6.776;2023-02-22T10:00:49;10.00;99.90
4826;DHT22;2427;50.934;6.776;2023-02-22T10:03:35;10.10;99.90
4826;DHT22;2427;50.934;6.776;2023-02-22T10:06:11;10.10;99.90
4826;DHT22;2427;50.934;6.776;2023-02-22T10:08:39;10.20;35.00
4826;DHT22;2427;50.934;6.776;2023-02-22T10:14:41;10.40;1.00
4826;DHT22;2427;50.934;6.776;2023-02-22T10:23:02;10.60;1.00
4826;DHT22;2427;50.934;6.776;2023-02-22T10:25:30;10.70;99.90
4826;DHT22;2427;50.934;6.776;2023-02-22T10:28:21;10.80;99.90
4826;DHT22;2427;50.934;6.776;2023-02-22T10:30:49;10.80;1.00
4826;DHT22;2427;50.934;6.776;2023-02-22T10:33:32;10.90;1.00
4826;DHT22;2427;50.934;6.776;2023-02-22T10:35:59;10.90;99.90
4826;DHT22;2427;50.934;6.776;2023-02-22T10:38:27;11.10;99.90
4826;DHT22;2427;50.934;6.776;2023-02-22T10:41:11;11.10;99.90
4826;DHT22;2427;50.934;6.776;2023-02-22T10:43:40;11.20;99.90
4826;DHT22;2427;50.934;6.776;2023-02-22T10:46:11;11.40;90.40
4826;DHT22;2427;50.934;6.776;2023-02-22T10:48:39;11.50;29.00
4826;DHT22;2427;50.934;6.776;2023-02-22T10:51:08;11.60;18.30
4826;DHT22;2427;50.934;6.776;2023-02-22T10:53:35;11.80;1.00
4826;DHT22;2427;50.934;6.776;2023-02-22T10:56:20;11.80;1.00
4826;DHT22;2427;50.934;6.776;2023-02-22T10:58:50;12.00;1.00
4826;DHT22;2427;50.934;6.776;2023-02-22T11:04:31;12.40;99.90
4826;DHT22;2427;50.934;6.776;2023-02-22T11:07:12;12.50;99.90
4826;DHT22;2427;50.934;6.776;2023-02-22T11:09:47;12.70;99.90
4826;DHT22;2427;50.934;6.776;2023-02-22T11:12:18;12.80;99.90
4826;DHT22;2427;50.934;6.776;2023-02-22T11:14:45;13.00;99.90
4826;DHT22;2427;50.934;6.776;2023-02-22T11:17:15;13.20;99.90
4826;DHT22;2427;50.934;6.776;2023-02-22T11:19:49;13.40;33.60
4826;DHT22;2427;50.934;6.776;2023-02-22T11:22:41;13.50;4.00
4826;DHT22;2427;50.934;6.776;2023-02-22T11:25:07;13.80;1.00
4826;DHT22;2427;50.934;6.776;2023-02-22T11:27:39;13.90;1.00
4826;DHT22;2427;50.934;6.776;2023-02-22T11:32:59;14.50;1.00
4826;DHT22;2427;50.934;6.776;2023-02-22T11:37:53;15.00;1.00
4826;DHT22;2427;50.934;6.776;2023-02-22T11:40:29;15.20;1.00
4826;DHT22;2427;50.934;6.776;2023-02-22T11:43:08;15.40;1.00
4826;DHT22;2427;50.934;6.776;2023-02-22T11:45:37;15.50;1.00
4826;DHT22;2427;50.934;6.776;2023-02-22T11:48:05;15.70;1.00
4826;DHT22;2427;50.934;6.776;2023-02-22T11:50:43;15.80;1.00
4826;DHT22;2427;50.934;6.776;2023-02-22T11:56:11;16.30;1.00
4826;DHT22;2427;50.934;6.776;2023-02-22T12:01:53;16.50;1.00
4826;DHT22;2427;50.934;6.776;2023-02-22T12:05:24;16.80;1.00
4826;DHT22;2427;50.934;6.776;2023-02-22T12:07:34;17.10;1.00
4826;DHT22;2427;50.934;6.776;2023-02-22T12:15:28;17.70;99.90
4826;DHT22;2427;50.934;6.776;2023-02-22T12:18:17;18.00;99.90
4826;DHT22;2427;50.934;6.776;2023-02-22T12:20:51;18.10;99.90
4826;DHT22;2427;50.934;6.776;2023-02-22T12:26:11;19.10;99.90
4826;DHT22;2427;50.934;6.776;2023-02-22T12:28:54;19.30;99.90
4826;DHT22;2427;50.934;6.776;2023-02-22T12:31:36;19.70;99.90
4826;DHT22;2427;50.934;6.776;2023-02-22T12:36:46;20.30;99.90
4826;DHT22;2427;50.934;6.776;2023-02-22T12:41:59;20.40;99.90
4826;DHT22;2427;50.934;6.776;2023-02-22T12:44:51;20.10;99.90
4826;DHT22;2427;50.934;6.776;2023-02-22T12:47:22;20.00;99.90
4826;DHT22;2427;50.934;6.776;2023-02-22T12:50:18;20.00;99.90
4826;DHT22;2427;50.934;6.776;2023-02-22T12:52:50;20.20;99.90
4826;DHT22;2427;50.934;6.776;2023-02-22T12:55:23;20.50;99.90
4826;DHT22;2427;50.934;6.776;2023-02-22T12:57:54;20.30;99.90
4826;DHT22;2427;50.934;6.776;2023-02-22T13:05:40;19.90;99.90
4826;DHT22;2427;50.934;6.776;2023-02-22T13:08:33;19.60;99.90
4826;DHT22;2427;50.934;6.776;2023-02-22T13:16:55;19.60;99.90
4826;DHT22;2427;50.934;6.776;2023-02-22T13:19:32;19.80;99.90
4826;DHT22;2427;50.934;6.776;2023-02-22T13:24:55;20.80;99.90
4826;DHT22;2427;50.934;6.776;2023-02-22T13:27:27;21.80;99.90
4826;DHT22;2427;50.934;6.776;2023-02-22T13:29:57;22.90;99.90
4826;DHT22;2427;50.934;6.776;2023-02-22T13:32:39;23.60;99.90
4826;DHT22;2427;50.934;6.776;2023-02-22T13:38:27;23.60;99.90
4826;DHT22;2427;50.934;6.776;2023-02-22T13:41:02;23.20;99.90
4826;DHT22;2427;50.934;6.776;2023-02-22T13:43:51;23.30;99.90
4826;DHT22;2427;50.934;6.776;2023-02-22T13:51:59;24.20;99.90
4826;DHT22;2427;50.934;6.776;2023-02-22T13:54:41;25.30;99.90
4826;DHT22;2427;50.934;6.776;2023-02-22T13:57:26;25.80;99.90
4826;DHT22;2427;50.934;6.776;2023-02-22T14:08:02;24.70;99.90
4826;DHT22;2427;50.934;6.776;2023-02-22T14:13:17;23.40;99.90
4826;DHT22;2427;50.934;6.776;2023-02-22T14:18:36;24.40;99.90
4826;DHT22;2427;50.934;6.776;2023-02-22T14:21:20;24.70;99.90
4826;DHT22;2427;50.934;6.776;2023-02-22T14:23:53;25.60;99.90
4826;DHT22;2427;50.934;6.776;2023-02-22T14:34:13;24.90;99.90
4826;DHT22;2427;50.934;6.776;2023-02-22T14:36:58;25.20;99.90
4826;DHT22;2427;50.934;6.776;2023-02-22T14:45:02;25.20;99.90
4826;DHT22;2427;50.934;6.776;2023-02-22T14:47:43;24.30;99.90
4826;DHT22;2427;50.934;6.776;2023-02-22T14:50:24;23.70;99.90
4826;DHT22;2427;50.934;6.776;2023-02-22T14:53:33;23.10;99.90
4826;DHT22;2427;50.934;6.776;2023-02-22T14:56:04;22.00;99.90
4826;DHT22;2427;50.934;6.776;2023-02-22T14:58:39;21.20;99.90
4826;DHT22;2427;50.934;6.776;2023-02-22T15:03:46;20.10;99.90
4826;DHT22;2427;50.934;6.776;2023-02-22T15:08:43;19.10;99.90
4826;DHT22;2427;50.934;6.776;2023-02-22T15:11:25;18.50;99.90
4826;DHT22;2427;50.934;6.776;2023-02-22T15:13:53;18.20;99.90
4826;DHT22;2427;50.934;6.776;2023-02-22T15:16:21;18.00;99.90
4826;DHT22;2427;50.934;6.776;2023-02-22T15:18:50;17.80;99.90
4826;DHT22;2427;50.934;6.776;2023-02-22T15:21:18;17.70;99.90
4826;DHT22;2427;50.934;6.776;2023-02-22T15:23:47;17.60;99.90
4826;DHT22;2427;50.934;6.776;2023-02-22T15:28:56;17.30;99.90
4826;DHT22;2427;50.934;6.776;2023-02-22T15:31:31;17.00;99.90
4826;DHT22;2427;50.934;6.776;2023-02-22T15:34:07;16.70;99.90
4826;DHT22;2427;50.934;6.776;2023-02-22T15:36:33;16.70;99.90
4826;DHT22;2427;50.934;6.776;2023-02-22T15:38:59;16.60;99.90
4826;DHT22;2427;50.934;6.776;2023-02-22T15:41:29;16.50;99.90
4826;DHT22;2427;50.934;6.776;2023-02-22T15:43:57;16.40;99.90
4826;DHT22;2427;50.934;6.776;2023-02-22T15:46:23;16.40;99.90
4826;DHT22;2427;50.934;6.776;2023-02-22T15:49:19;16.30;99.90
4826;DHT22;2427;50.934;6.776;2023-02-22T15:51:45;16.20;99.90
4826;DHT22;2427;50.934;6.776;2023-02-22T15:54:13;16.00;99.90
4826;DHT22;2427;50.934;6.776;2023-02-22T15:56:49;15.90;99.90
4826;DHT22;2427;50.934;6.776;2023-02-22T15:59:20;15.80;99.90
4826;DHT22;2427;50.934;6.776;2023-02-22T16:01:49;15.60;99.90
4826;DHT22;2427;50.934;6.776;2023-02-22T16:04:17;15.60;99.90
4826;DHT22;2427;50.934;6.776;2023-02-22T16:06:44;15.40;99.90
4826;DHT22;2427;50.934;6.776;2023-02-22T16:09:11;15.40;99.90
4826;DHT22;2427;50.934;6.776;2023-02-22T16:11:39;15.30;99.90
4826;DHT22;2427;50.934;6.776;2023-02-22T16:17:27;15.10;99.90
4826;DHT22;2427;50.934;6.776;2023-02-22T16:19:58;15.00;99.90
4826;DHT22;2427;50.934;6.776;2023-02-22T16:22:35;14.80;99.90
4826;DHT22;2427;50.934;6.776;2023-02-22T16:28:01;14.60;1.00
4826;DHT22;2427;50.934;6.776;2023-02-22T16:30:38;14.50;1.00
4826;DHT22;2427;50.934;6.776;2023-02-22T16:33:06;14.30;1.00
4826;DHT22;2427;50.934;6.776;2023-02-22T16:35:38;14.20;1.00
4826;DHT22;2427;50.934;6.776;2023-02-22T16:38:06;14.10;1.00
4826;DHT22;2427;50.934;6.776;2023-02-22T16:40:46;14.00;1.00
4826;DHT22;2427;50.934;6.776;2023-02-22T16:43:19;13.90;1.00
4826;DHT22;2427;50.934;6.776;2023-02-22T16:45:45;13.80;1.00
4826;DHT22;2427;50.934;6.776;2023-02-22T16:50:41;13.60;1.00
4826;DHT22;2427;50.934;6.776;2023-02-22T16:53:07;13.60;1.00
4826;DHT22;2427;50.934;6.776;2023-02-22T16:55:33;13.50;1.00
4826;DHT22;2427;50.934;6.776;2023-02-22T16:58:01;13.40;1.00
4826;DHT22;2427;50.934;6.776;2023-02-22T17:00:27;13.30;1.00
4826;DHT22;2427;50.934;6.776;2023-02-22T17:03:00;13.20;1.00
4826;DHT22;2427;50.934;6.776;2023-02-22T17:05:29;13.10;1.00
4826;DHT22;2427;50.934;6.776;2023-02-22T17:07:55;13.10;1.00
4826;DHT22;2427;50.934;6.776;2023-02-22T17:10:21;13.00;1.00
4826;DHT22;2427;50.934;6.776;2023-02-22T17:12:48;13.00;1.00
4826;DHT22;2427;50.934;6.776;2023-02-22T17:15:22;13.00;1.00
4826;DHT22;2427;50.934;6.776;2023-02-22T17:17:50;13.00;1.00
4826;DHT22;2427;50.934;6.776;2023-02-22T17:20:16;13.00;1.00
4826;DHT22;2427;50.934;6.776;2023-02-22T17:22:57;12.90;1.00
4826;DHT22;2427;50.934;6.776;2023-02-22T17:25:38;12.90;1.00
4826;DHT22;2427;50.934;6.776;2023-02-22T17:28:05;12.80;1.00
4826;DHT22;2427;50.934;6.776;2023-02-22T17:30:30;12.80;5.70
4826;DHT22;2427;50.934;6.776;2023-02-22T17:32:59;12.70;74.40
4826;DHT22;2427;50.934;6.776;2023-02-22T17:35:29;12.60;99.90
4826;DHT22;2427;50.934;6.776;2023-02-22T17:37:56;12.60;96.60
4826;DHT22;2427;50.934;6.776;2023-02-22T17:40:22;12.50;95.30
4826;DHT22;2427;50.934;6.776;2023-02-22T17:42:47;12.50;97.00
4826;DHT22;2427;50.934;6.776;2023-02-22T17:45:19;12.50;99.90
4826;DHT22;2427;50.934;6.776;2023-02-22T17:47:45;12.40;99.90
4826;DHT22;2427;50.934;6.776;2023-02-22T17:50:11;12.30;99.90
4826;DHT22;2427;50.934;6.776;2023-02-22T17:52:37;12.20;99.90
4826;DHT22;2427;50.934;6.776;2023-02-22T17:55:04;12.10;99.90
4826;DHT22;2427;50.934;6.776;2023-02-22T17:57:30;12.00;99.90
4826;DHT22;2427;50.934;6.776;2023-02-22T17:59:57;12.00;99.90
4826;DHT22;2427;50.934;6.776;2023-02-22T18:02:23;11.90;1.00
4826;DHT22;2427;50.934;6.776;2023-02-22T18:04:49;11.90;1.00
4826;DHT22;2427;50.934;6.776;2023-02-22T18:07:14;11.90;1.00
4826;DHT22;2427;50.934;6.776;2023-02-22T18:09:46;11.80;1.00
4826;DHT22;2427;50.934;6.776;2023-02-22T18:12:12;11.80;1.00
4826;DHT22;2427;50.934;6.776;2023-02-22T18:14:38;11.80;1.00
4826;DHT22;2427;50.934;6.776;2023-02-22T18:17:03;11.90;1.00
4826;DHT22;2427;50.934;6.776;2023-02-22T18:19:29;11.90;99.90
4826;DHT22;2427;50.934;6.776;2023-02-22T18:21:55;11.90;1.00
4826;DHT22;2427;50.934;6.776;2023-02-22T18:24:25;11.90;1.00
4826;DHT22;2427;50.934;6.776;2023-02-22T18:26:51;11.90;1.00
4826;DHT22;2427;50.934;6.776;2023-02-22T18:29:17;11.90;1.00
4826;DHT22;2427;50.934;6.776;2023-02-22T18:31:43;11.90;1.00
4826;DHT22;2427;50.934;6.776;2023-02-22T18:34:09;11.80;1.00
4826;DHT22;2427;50.934;6.776;2023-02-22T18:36:37;11.80;1.00
4826;DHT22;2427;50.934;6.776;2023-02-22T18:39:03;11.70;1.00
4826;DHT22;2427;50.934;6.776;2023-02-22T18:41:34;11.70;1.00
4826;DHT22;2427;50.934;6.776;2023-02-22T18:44:00;11.70;1.00
4826;DHT22;2427;50.934;6.776;2023-02-22T18:46:27;11.70;1.00
4826;DHT22;2427;50.934;6.776;2023-02-22T18:48:55;11.70;1.00
4826;DHT22;2427;50.934;6.776;2023-02-22T18:51:21;11.70;1.00
4826;DHT22;2427;50.934;6.776;2023-02-22T18:53:46;11.70;1.00
4826;DHT22;2427;50.934;6.776;2023-02-22T18:56:18;11.60;1.00
4826;DHT22;2427;50.934;6.776;2023-02-22T18:58:46;11.50;1.00
4826;DHT22;2427;50.934;6.776;2023-02-22T19:01:15;11.50;1.00
4826;DHT22;2427;50.934;6.776;2023-02-22T19:03:41;11.40;1.00
4826;DHT22;2427;50.934;6.776;2023-02-22T19:06:07;11.40;1.00
4826;DHT22;2427;50.934;6.776;2023-02-22T19:08:37;11.40;1.00
4826;DHT22;2427;50.934;6.776;2023-02-22T19:11:08;11.40;1.00
4826;DHT22;2427;50.934;6.776;2023-02-22T19:13:35;11.40;1.00
4826;DHT22;2427;50.934;6.776;2023-02-22T19:16:02;11.40;1.00